Time;durP1;ratioP1;P1;durP2;ratioP2;P2;SDS_P1;SDS_P2;PMS_P1;PMS_P2;Temp;Humidity;BMP_temperature;BMP_pressure;BME280_temperature;BME280_humidity;BME280_pressure;Samples;Min_cycle;Max_cycle;Signal;HPM_P1;HPM_P2
2022/09/22 00:00:53;;;;;;;6.22;3.50;;;;;;;;;;5093893;28;20051;-77
2022/09/22 00:03:19;;;;;;;7.60;3.40;;;;;;;;;;5092728;28;20024;-77
2022/09/22 00:05:44;;;;;;;6.60;4.40;;;;;;;;;;5093888;28;20153;-77
2022/09/22 00:08:09;;;;;;;5.20;3.42;;;;;;;;;;5093815;28;20380;-77
2022/09/22 00:10:34;;;;;;;6.20;3.50;;;;;;;;;;5093911;28;20024;-77
2022/09/22 00:12:59;;;;;;;6.28;3.65;;;;;;;;;;5092498;28;20359;-76
2022/09/22 00:15:25;;;;;;;7.90;3.60;;;;;;;;;;5092604;28;20148;-77
2022/09/22 00:17:50;;;;;;;4.32;3.40;;;;;;;;;;5093754;28;20244;-77
2022/09/22 00:20:16;;;;;;;6.50;3.17;;;;;;;;;;5093552;28;20484;-77
2022/09/22 00:22:41;;;;;;;6.45;3.28;;;;;;;;;;5093802;28;20035;-77
2022/09/22 00:25:07;;;;;;;7.90;3.60;;;;;;;;;;5093599;28;20032;-76
2022/09/22 00:27:33;;;;;;;5.75;3.42;;;;;;;;;;5093476;28;20261;-76
2022/09/22 00:29:59;;;;;;;7.63;3.63;;;;;;;;;;5093302;28;20031;-77
2022/09/22 00:32:24;;;;;;;6.30;3.70;;;;;;;;;;5093406;28;20020;-78
2022/09/22 00:34:49;;;;;;;5.85;3.70;;;;;;;;;;5093564;28;20047;-77
2022/09/22 00:37:15;;;;;;;8.20;3.67;;;;;;;;;;5092178;28;20063;-77
2022/09/22 00:39:40;;;;;;;6.13;3.30;;;;;;;;;;5092153;28;20295;-77
2022/09/22 00:42:05;;;;;;;7.95;3.70;;;;;;;;;;5093427;28;20366;-77
2022/09/22 00:44:35;;;;;;;9.48;3.78;;;;;;;;;;5093220;28;20036;-76
2022/09/22 00:47:18;;;;;;;7.45;3.53;;;;;;;;;;5091894;28;20028;-76
2022/09/22 00:50:08;;;;;;;6.67;3.30;;;;;;;;;;5093330;28;20035;-77
2022/09/22 00:52:49;;;;;;;4.80;3.60;;;;;;;;;;5091891;28;20373;-77
2022/09/22 00:55:20;;;;;;;8.02;3.80;;;;;;;;;;5091964;28;20016;-76
2022/09/22 00:57:46;;;;;;;7.47;3.70;;;;;;;;;;5093410;28;20062;-77
2022/09/22 01:00:13;;;;;;;5.72;3.33;;;;;;;;;;5093065;28;20024;-77
2022/09/22 01:02:39;;;;;;;4.78;3.38;;;;;;;;;;5093320;28;20197;-77
2022/09/22 01:05:05;;;;;;;7.32;3.17;;;;;;;;;;5091793;28;20147;-77
2022/09/22 01:07:30;;;;;;;5.03;3.38;;;;;;;;;;5092846;28;20020;-77
2022/09/22 01:09:57;;;;;;;4.25;3.30;;;;;;;;;;5092978;28;20027;-76
2022/09/22 01:12:24;;;;;;;11.18;3.40;;;;;;;;;;5093129;28;20027;-76
2022/09/22 01:15:17;;;;;;;4.75;3.15;;;;;;;;;;5093046;28;20064;-77
2022/09/22 01:17:53;;;;;;;6.32;3.20;;;;;;;;;;5091585;28;20073;-77
2022/09/22 01:20:35;;;;;;;4.03;2.95;;;;;;;;;;5093277;28;20024;-77
2022/09/22 01:23:24;;;;;;;6.03;3.03;;;;;;;;;;5093585;28;20431;-77
2022/09/22 01:26:11;;;;;;;4.38;3.10;;;;;;;;;;5093381;28;20114;-77
2022/09/22 01:28:42;;;;;;;5.75;3.20;;;;;;;;;;5092889;28;20020;-77
2022/09/22 01:31:13;;;;;;;4.40;2.95;;;;;;;;;;5093221;28;20432;-77
2022/09/22 01:34:04;;;;;;;4.60;3.13;;;;;;;;;;5093368;28;20519;-77
2022/09/22 01:36:43;;;;;;;5.82;3.53;;;;;;;;;;5093014;28;20025;-77
2022/09/22 01:39:25;;;;;;;6.25;3.33;;;;;;;;;;5092674;28;20427;-77
2022/09/22 01:41:57;;;;;;;4.97;3.47;;;;;;;;;;5091432;28;20035;-77
2022/09/22 01:45:06;;;;;;;5.07;3.17;;;;;;;;;;5091337;28;20024;-77
2022/09/22 01:47:39;;;;;;;4.03;3.10;;;;;;;;;;5086076;28;20035;-76
2022/09/22 01:50:09;;;;;;;5.30;3.53;;;;;;;;;;5096302;28;20044;-77
2022/09/22 01:52:38;;;;;;;4.78;3.10;;;;;;;;;;5096772;28;20047;-77
2022/09/22 01:55:23;;;;;;;6.45;3.50;;;;;;;;;;5096626;28;20385;-77
2022/09/22 01:57:57;;;;;;;6.13;3.58;;;;;;;;;;5096684;28;20020;-77
2022/09/22 02:00:23;;;;;;;4.82;3.08;;;;;;;;;;5096436;28;20473;-77
2022/09/22 02:02:56;;;;;;;6.38;3.30;;;;;;;;;;5096241;28;20032;-77
2022/09/22 02:05:31;;;;;;;3.90;3.40;;;;;;;;;;5096447;28;20060;-77
2022/09/22 02:07:58;;;;;;;5.93;3.30;;;;;;;;;;5095905;28;20036;-78
2022/09/22 02:10:31;;;;;;;5.72;3.20;;;;;;;;;;5095867;28;20371;-76
2022/09/22 02:12:56;;;;;;;3.83;2.92;;;;;;;;;;5096015;28;20026;-77
2022/09/22 02:18:08;;;;;;;;;;;;;;;;;;5096335;28;20457;-76
2022/09/22 02:20:34;;;;;;;4.65;2.85;;;;;;;;;;5095923;28;19908;-77
2022/09/22 02:22:59;;;;;;;4.65;2.90;;;;;;;;;;5094597;28;20035;-77
2022/09/22 02:25:25;;;;;;;4.80;3.40;;;;;;;;;;5094322;28;20384;-77
2022/09/22 02:27:53;;;;;;;5.00;3.20;;;;;;;;;;5094506;28;20024;-78
2022/09/22 02:30:19;;;;;;;5.45;2.97;;;;;;;;;;5096183;28;20107;-77
2022/09/22 02:32:49;;;;;;;6.28;3.22;;;;;;;;;;5096052;28;20111;-78
2022/09/22 02:35:14;;;;;;;4.47;3.22;;;;;;;;;;5096017;28;20035;-78
2022/09/22 02:38:05;;;;;;;4.65;3.10;;;;;;;;;;5095798;28;20032;-78
2022/09/22 02:40:47;;;;;;;3.75;2.67;;;;;;;;;;5094495;28;20111;-78
2022/09/22 02:43:31;;;;;;;3.58;2.80;;;;;;;;;;5094236;28;20055;-78
2022/09/22 02:46:10;;;;;;;4.25;2.97;;;;;;;;;;5094562;28;20046;-78
2022/09/22 02:48:43;;;;;;;4.63;2.95;;;;;;;;;;5095538;28;20448;-77
2022/09/22 02:51:09;;;;;;;4.97;2.78;;;;;;;;;;5094285;28;20024;-77
2022/09/22 02:53:35;;;;;;;4.22;3.08;;;;;;;;;;5095305;28;20051;-77
2022/09/22 02:56:01;;;;;;;6.00;3.15;;;;;;;;;;5095491;28;20365;-78
2022/09/22 02:58:26;;;;;;;5.65;3.55;;;;;;;;;;5092847;28;20024;-77
2022/09/22 03:00:52;;;;;;;6.43;3.17;;;;;;;;;;5094983;28;20016;-77
2022/09/22 03:03:17;;;;;;;5.70;3.47;;;;;;;;;;5095177;28;20257;-77
2022/09/22 03:05:42;;;;;;;5.97;3.70;;;;;;;;;;5095025;28;20310;-76
2022/09/22 03:08:08;;;;;;;5.80;4.07;;;;;;;;;;5094561;28;20082;-76
2022/09/22 03:10:33;;;;;;;14.10;4.32;;;;;;;;;;5094776;28;20477;-77
2022/09/22 03:12:58;;;;;;;33.60;4.18;;;;;;;;;;5093378;28;20027;-78
2022/09/22 03:15:23;;;;;;;25.17;4.47;;;;;;;;;;5094793;28;20024;-77
2022/09/22 03:17:49;;;;;;;8.65;4.13;;;;;;;;;;5094699;28;20027;-77
2022/09/22 03:20:15;;;;;;;22.65;4.55;;;;;;;;;;5094841;28;20077;-77
2022/09/22 03:22:40;;;;;;;21.88;4.63;;;;;;;;;;5093671;28;20100;-77
2022/09/22 03:25:07;;;;;;;55.38;4.75;;;;;;;;;;5094843;28;20020;-77
2022/09/22 03:27:32;;;;;;;78.35;4.53;;;;;;;;;;5094757;28;20477;-77
2022/09/22 03:29:58;;;;;;;23.80;4.30;;;;;;;;;;5094622;28;20032;-77
2022/09/22 03:32:23;;;;;;;30.17;4.65;;;;;;;;;;5094895;28;20024;-77
2022/09/22 03:34:48;;;;;;;21.95;4.03;;;;;;;;;;5094683;28;20060;-77
2022/09/22 03:37:15;;;;;;;33.92;4.25;;;;;;;;;;5093162;28;20024;-78
2022/09/22 03:39:40;;;;;;;23.08;3.92;;;;;;;;;;5094535;28;20020;-78
2022/09/22 03:42:06;;;;;;;23.92;3.83;;;;;;;;;;5094436;28;20051;-78
2022/09/22 03:44:31;;;;;;;16.92;3.70;;;;;;;;;;5094422;28;20111;-78
2022/09/22 03:46:57;;;;;;;32.55;4.10;;;;;;;;;;5094476;28;20028;-78
2022/09/22 03:49:22;;;;;;;29.15;3.90;;;;;;;;;;5093998;28;20477;-77
2022/09/22 03:51:47;;;;;;;11.00;3.97;;;;;;;;;;5092688;28;20118;-77
2022/09/22 03:54:12;;;;;;;10.90;4.00;;;;;;;;;;5094242;28;20366;-77
2022/09/22 03:56:38;;;;;;;10.55;3.80;;;;;;;;;;5093914;28;20621;-76
2022/09/22 03:59:03;;;;;;;13.88;3.83;;;;;;;;;;5094052;28;20026;-77
2022/09/22 04:01:28;;;;;;;11.18;4.07;;;;;;;;;;5094179;28;20106;-78
2022/09/22 04:03:54;;;;;;;44.80;4.00;;;;;;;;;;5094431;28;20016;-79
2022/09/22 04:06:19;;;;;;;28.88;4.38;;;;;;;;;;5094341;28;20066;-78
2022/09/22 04:08:44;;;;;;;10.15;3.67;;;;;;;;;;5093733;28;20024;-77
2022/09/22 04:11:10;;;;;;;9.50;4.00;;;;;;;;;;5094304;28;20028;-78
2022/09/22 04:13:35;;;;;;;8.88;4.00;;;;;;;;;;5093716;28;20260;-76
2022/09/22 04:16:01;;;;;;;17.15;4.43;;;;;;;;;;5092395;28;20077;-77
2022/09/22 04:18:27;;;;;;;9.02;4.53;;;;;;;;;;5093428;28;20020;-77
2022/09/22 04:20:57;;;;;;;8.63;4.68;;;;;;;;;;5093740;28;20064;-77
2022/09/22 04:23:23;;;;;;;7.75;4.32;;;;;;;;;;5094009;28;20048;-77
2022/09/22 04:25:48;;;;;;;8.43;4.45;;;;;;;;;;5093908;28;20039;-77
2022/09/22 04:28:13;;;;;;;31.50;4.10;;;;;;;;;;5093537;28;20028;-77
2022/09/22 04:30:38;;;;;;;7.47;4.03;;;;;;;;;;5093678;28;20108;-77
2022/09/22 04:33:04;;;;;;;8.00;3.95;;;;;;;;;;5093925;28;20288;-78
2022/09/22 04:35:29;;;;;;;20.73;3.97;;;;;;;;;;5094396;28;20024;-77
2022/09/22 04:37:56;;;;;;;15.98;3.90;;;;;;;;;;5092591;28;20016;-76
2022/09/22 04:40:22;;;;;;;13.13;3.67;;;;;;;;;;5094007;28;20064;-76
2022/09/22 04:42:48;;;;;;;21.35;3.67;;;;;;;;;;5092364;28;20039;-76
2022/09/22 04:45:15;;;;;;;14.00;5.22;;;;;;;;;;5093718;28;20362;-77
2022/09/22 04:47:43;;;;;;;16.23;4.22;;;;;;;;;;5091999;28;20031;-77
2022/09/22 04:50:09;;;;;;;13.77;3.58;;;;;;;;;;5093063;28;20487;-76
2022/09/22 04:52:34;;;;;;;7.45;3.90;;;;;;;;;;5093507;28;20111;-77
2022/09/22 04:54:59;;;;;;;9.93;3.70;;;;;;;;;;5093226;28;20047;-77
2022/09/22 04:57:24;;;;;;;13.95;4.10;;;;;;;;;;5093075;28;20261;-77
2022/09/22 04:59:49;;;;;;;8.02;3.55;;;;;;;;;;5091919;28;20020;-77
2022/09/22 05:02:15;;;;;;;16.57;3.27;;;;;;;;;;5093749;28;20081;-77
2022/09/22 05:04:40;;;;;;;5.00;3.75;;;;;;;;;;5093411;28;20278;-76
2022/09/22 05:07:05;;;;;;;20.73;4.53;;;;;;;;;;5093351;28;20503;-77
2022/09/22 05:09:30;;;;;;;19.60;3.70;;;;;;;;;;5092930;28;20765;-77
2022/09/22 05:11:58;;;;;;;10.50;4.00;;;;;;;;;;5093108;28;20111;-76
2022/09/22 05:14:23;;;;;;;12.82;4.10;;;;;;;;;;5093054;28;20309;-76
2022/09/22 05:16:48;;;;;;;13.25;4.53;;;;;;;;;;5093217;28;20481;-77
2022/09/22 05:19:14;;;;;;;8.67;3.97;;;;;;;;;;5092788;28;20024;-77
2022/09/22 05:21:39;;;;;;;11.77;4.28;;;;;;;;;;5095278;28;20275;-76
2022/09/22 05:24:04;;;;;;;15.47;3.70;;;;;;;;;;5095505;28;20024;-76
2022/09/22 05:26:30;;;;;;;10.65;3.40;;;;;;;;;;5096748;28;20256;-77
2022/09/22 05:28:56;;;;;;;4.77;3.67;;;;;;;;;;5096613;28;20021;-76
2022/09/22 05:31:22;;;;;;;8.90;3.72;;;;;;;;;;5096609;28;20249;-76
2022/09/22 05:33:47;;;;;;;7.97;3.78;;;;;;;;;;5097038;28;20103;-76
2022/09/22 05:36:13;;;;;;;5.50;3.67;;;;;;;;;;5096614;28;20020;-77
2022/09/22 05:38:38;;;;;;;7.57;3.78;;;;;;;;;;5096519;28;20039;-77
2022/09/22 05:41:04;;;;;;;7.03;3.90;;;;;;;;;;5096660;28;20020;-77
2022/09/22 05:43:29;;;;;;;5.95;3.97;;;;;;;;;;5096266;28;20028;-77
2022/09/22 05:45:54;;;;;;;8.35;4.20;;;;;;;;;;5096681;28;20026;-76
2022/09/22 05:48:20;;;;;;;7.63;4.05;;;;;;;;;;5096645;28;20103;-77
2022/09/22 05:50:45;;;;;;;7.05;4.28;;;;;;;;;;5095746;28;20038;-77
2022/09/22 05:53:11;;;;;;;7.53;3.90;;;;;;;;;;5096224;28;20019;-77
2022/09/22 05:55:38;;;;;;;6.57;3.70;;;;;;;;;;5096534;28;20069;-77
2022/09/22 05:58:03;;;;;;;4.95;3.33;;;;;;;;;;5094911;28;20024;-78
2022/09/22 06:00:29;;;;;;;5.22;3.08;;;;;;;;;;5096299;28;20511;-77
2022/09/22 06:02:54;;;;;;;5.85;2.80;;;;;;;;;;5096017;28;20028;-77
2022/09/22 06:05:20;;;;;;;3.58;2.60;;;;;;;;;;5096226;28;20042;-77
2022/09/22 06:07:47;;;;;;;4.80;3.10;;;;;;;;;;5094719;28;20118;-77
2022/09/22 06:10:13;;;;;;;14.40;2.72;;;;;;;;;;5094754;28;20020;-77
2022/09/22 06:12:38;;;;;;;4.22;3.05;;;;;;;;;;5094639;28;20027;-77
2022/09/22 06:15:05;;;;;;;6.70;3.22;;;;;;;;;;5096533;28;20514;-77
2022/09/22 06:17:30;;;;;;;6.53;3.40;;;;;;;;;;5095814;28;20405;-77
2022/09/22 06:19:57;;;;;;;4.53;3.10;;;;;;;;;;5095617;28;20024;-77
2022/09/22 06:22:23;;;;;;;12.20;2.90;;;;;;;;;;5095673;28;20032;-77
2022/09/22 06:24:48;;;;;;;7.55;3.30;;;;;;;;;;5094426;28;20043;-77
2022/09/22 06:27:13;;;;;;;12.63;3.05;;;;;;;;;;5094138;28;20020;-77
2022/09/22 06:29:40;;;;;;;18.70;3.38;;;;;;;;;;5095192;28;20385;-77
2022/09/22 06:32:06;;;;;;;4.07;3.20;;;;;;;;;;5095295;28;20392;-77
2022/09/22 06:34:32;;;;;;;4.63;2.83;;;;;;;;;;5095429;28;20122;-77
2022/09/22 06:36:58;;;;;;;4.97;3.05;;;;;;;;;;5095493;28;20035;-77
2022/09/22 06:39:24;;;;;;;11.98;3.60;;;;;;;;;;5095491;28;20042;-77
2022/09/22 06:41:49;;;;;;;5.78;3.58;;;;;;;;;;5095344;28;20037;-77
2022/09/22 06:44:14;;;;;;;6.15;3.75;;;;;;;;;;5095141;28;20028;-77
2022/09/22 06:46:40;;;;;;;7.20;4.03;;;;;;;;;;5093723;28;20028;-77
2022/09/22 06:49:06;;;;;;;6.35;3.75;;;;;;;;;;5095110;28;20280;-77
2022/09/22 06:51:33;;;;;;;9.30;4.13;;;;;;;;;;5095034;28;20366;-77
2022/09/22 06:54:01;;;;;;;7.28;3.55;;;;;;;;;;5094997;28;20034;-77
2022/09/22 06:56:27;;;;;;;5.70;3.88;;;;;;;;;;5095249;28;20053;-77
2022/09/22 06:58:54;;;;;;;7.72;4.05;;;;;;;;;;5094718;28;20052;-77
2022/09/22 07:01:22;;;;;;;5.82;3.53;;;;;;;;;;5095018;28;20425;-77
2022/09/22 07:03:47;;;;;;;6.88;4.25;;;;;;;;;;5093445;28;20023;-77
2022/09/22 07:06:17;;;;;;;9.73;4.20;;;;;;;;;;5094842;28;20112;-77
2022/09/22 07:08:47;;;;;;;6.05;4.28;;;;;;;;;;5094654;28;20359;-77
2022/09/22 07:11:13;;;;;;;8.10;4.95;;;;;;;;;;5094625;28;20031;-77
2022/09/22 07:13:41;;;;;;;7.15;4.45;;;;;;;;;;5093331;28;20123;-75
2022/09/22 07:16:11;;;;;;;6.95;4.60;;;;;;;;;;5093394;28;20023;-77
2022/09/22 07:18:43;;;;;;;6.38;3.95;;;;;;;;;;5094621;28;20016;-76
2022/09/22 07:21:11;;;;;;;6.03;4.45;;;;;;;;;;5093153;28;20420;-77
2022/09/22 07:23:37;;;;;;;5.70;4.03;;;;;;;;;;5094874;28;20027;-77
2022/09/22 07:26:04;;;;;;;6.63;4.82;;;;;;;;;;5093174;28;20016;-77
2022/09/22 07:28:31;;;;;;;6.20;4.30;;;;;;;;;;5092720;28;20090;-75
2022/09/22 07:31:07;;;;;;;6.55;4.88;;;;;;;;;;5093068;28;20070;-77
2022/09/22 07:33:38;;;;;;;8.75;4.80;;;;;;;;;;5093015;28;20031;-77
2022/09/22 07:36:10;;;;;;;8.57;4.75;;;;;;;;;;5094256;28;20060;-76
2022/09/22 07:38:36;;;;;;;8.55;5.70;;;;;;;;;;5094092;28;20020;-76
2022/09/22 07:41:05;;;;;;;8.88;5.20;;;;;;;;;;5094231;28;20020;-77
2022/09/22 07:43:31;;;;;;;10.10;5.43;;;;;;;;;;5093333;28;20488;-76
2022/09/22 07:45:56;;;;;;;7.72;5.25;;;;;;;;;;5094320;28;20076;-77
2022/09/22 07:48:36;;;;;;;8.40;5.28;;;;;;;;;;5092647;28;20016;-77
2022/09/22 07:51:07;;;;;;;9.80;5.97;;;;;;;;;;5094560;28;20400;-77
2022/09/22 07:53:33;;;;;;;9.70;5.88;;;;;;;;;;5094135;28;20048;-77
2022/09/22 07:56:11;;;;;;;7.78;5.38;;;;;;;;;;5094210;28;20028;-77
2022/09/22 07:58:36;;;;;;;6.90;5.30;;;;;;;;;;5093826;28;20384;-76
2022/09/22 08:01:06;;;;;;;12.63;5.78;;;;;;;;;;5093814;28;20032;-76
2022/09/22 08:03:32;;;;;;;8.50;5.32;;;;;;;;;;5093580;28;20096;-77
2022/09/22 08:06:04;;;;;;;8.18;5.88;;;;;;;;;;5094154;28;20095;-77
2022/09/22 08:08:31;;;;;;;9.88;5.47;;;;;;;;;;5092318;28;20028;-77
2022/09/22 08:11:03;;;;;;;7.40;5.35;;;;;;;;;;5093966;28;20070;-77
2022/09/22 08:13:28;;;;;;;9.70;5.28;;;;;;;;;;5093694;28;20063;-76
2022/09/22 08:15:55;;;;;;;9.15;5.53;;;;;;;;;;5092395;28;20480;-77
2022/09/22 08:18:20;;;;;;;9.18;5.45;;;;;;;;;;5093762;28;20495;-77
2022/09/22 08:20:45;;;;;;;8.85;5.35;;;;;;;;;;5094258;28;20028;-77
2022/09/22 08:23:11;;;;;;;7.07;4.80;;;;;;;;;;5094120;28;20024;-77
2022/09/22 08:25:36;;;;;;;6.97;4.93;;;;;;;;;;5094234;28;20256;-78
2022/09/22 08:28:01;;;;;;;8.00;4.95;;;;;;;;;;5093696;28;20051;-77
2022/09/22 08:30:27;;;;;;;7.82;4.97;;;;;;;;;;5092586;28;20480;-78
2022/09/22 08:32:52;;;;;;;7.25;5.07;;;;;;;;;;5093507;28;20028;-76
2022/09/22 08:35:18;;;;;;;7.00;4.63;;;;;;;;;;5093493;28;20396;-77
2022/09/22 08:37:44;;;;;;;7.35;4.38;;;;;;;;;;5093376;28;20413;-77
2022/09/22 08:40:19;;;;;;;7.53;4.20;;;;;;;;;;5091956;28;20452;-76
2022/09/22 08:42:45;;;;;;;7.60;4.13;;;;;;;;;;5093314;28;20028;-77
2022/09/22 08:45:29;;;;;;;7.13;4.07;;;;;;;;;;5093689;28;20031;-77
2022/09/22 08:54:07;;;;;;;5.68;4.10;;;;;;;;;;5093610;28;20031;-78
2022/09/22 08:56:40;;;;;;;6.85;3.88;;;;;;;;;;5095852;28;20062;-75
2022/09/22 08:59:20;;;;;;;8.90;4.23;;;;;;;;;;5097401;28;20442;-76
2022/09/22 09:02:26;;;;;;;8.82;4.45;;;;;;;;;;5096138;28;20095;-76
2022/09/22 09:05:05;;;;;;;6.47;3.80;;;;;;;;;;5095889;28;20016;-77
2022/09/22 09:07:45;;;;;;;5.45;4.20;;;;;;;;;;5095959;28;20028;-77
2022/09/22 09:10:31;;;;;;;6.68;4.50;;;;;;;;;;5097321;28;20439;-76
2022/09/22 09:13:09;;;;;;;7.50;4.05;;;;;;;;;;5096958;28;20089;-77
2022/09/22 09:15:55;;;;;;;4.93;3.75;;;;;;;;;;5097177;28;20107;-77
2022/09/22 09:18:27;;;;;;;7.68;3.63;;;;;;;;;;5097687;28;20044;-77
2022/09/22 09:20:53;;;;;;;6.70;3.78;;;;;;;;;;5096962;28;20046;-77
2022/09/22 09:23:32;;;;;;;4.90;3.20;;;;;;;;;;5099074;28;20035;-78
2022/09/22 09:25:59;;;;;;;5.15;3.50;;;;;;;;;;5099153;28;20430;-76
2022/09/22 09:28:34;;;;;;;3.63;2.78;;;;;;;;;;5098595;28;20554;-77
2022/09/22 09:31:17;;;;;;;4.15;2.88;;;;;;;;;;5099572;28;20028;-77
2022/09/22 09:33:55;;;;;;;7.70;3.50;;;;;;;;;;5099410;28;20469;-76
2022/09/22 09:36:23;;;;;;;5.18;3.50;;;;;;;;;;5098183;28;20103;-77
2022/09/22 09:38:52;;;;;;;7.45;3.83;;;;;;;;;;5098342;28;20028;-77
2022/09/22 09:41:32;;;;;;;5.63;3.67;;;;;;;;;;5098070;28;20026;-77
2022/09/22 09:43:59;;;;;;;5.25;3.42;;;;;;;;;;5096529;28;20032;-77
2022/09/22 09:46:40;;;;;;;4.85;3.20;;;;;;;;;;5097340;28;20028;-77
2022/09/22 09:49:13;;;;;;;5.10;3.10;;;;;;;;;;5097141;28;20058;-77
2022/09/22 09:51:42;;;;;;;4.22;3.20;;;;;;;;;;5098714;28;20032;-77
2022/09/22 09:54:10;;;;;;;4.88;2.88;;;;;;;;;;5097712;28;20024;-76
2022/09/22 09:56:36;;;;;;;7.70;3.05;;;;;;;;;;5096474;28;20050;-75
2022/09/22 10:01:50;;;;;;;4.43;2.80;;;;;;;;;;5097886;28;20077;-76
2022/09/22 10:04:34;;;;;;;7.28;2.80;;;;;;;;;;5098562;28;20020;-76
2022/09/22 10:07:14;;;;;;;4.60;2.78;;;;;;;;;;5097406;28;20497;-77
2022/09/22 10:09:40;;;;;;;5.35;2.83;;;;;;;;;;5097352;28;20032;-76
2022/09/22 10:12:28;;;;;;;4.35;2.40;;;;;;;;;;5098028;28;20127;-77
2022/09/22 10:14:57;;;;;;;5.55;2.35;;;;;;;;;;5099011;28;20024;-77
2022/09/22 10:17:43;;;;;;;4.03;2.53;;;;;;;;;;5097262;28;20027;-77
2022/09/22 10:20:25;;;;;;;3.30;2.30;;;;;;;;;;5097755;28;20028;-77
2022/09/22 10:22:51;;;;;;;4.93;2.22;;;;;;;;;;5098156;28;20026;-76
2022/09/22 10:25:23;;;;;;;4.20;2.40;;;;;;;;;;5096992;28;20031;-77
2022/09/22 10:28:11;;;;;;;3.10;2.33;;;;;;;;;;5095072;28;20038;-77
2022/09/22 10:30:37;;;;;;;5.20;2.63;;;;;;;;;;5095394;28;20030;-77
2022/09/22 10:33:22;;;;;;;4.68;2.33;;;;;;;;;;5097498;28;20048;-78
2022/09/22 10:36:05;;;;;;;5.10;3.15;;;;;;;;;;5096217;28;20073;-77
2022/09/22 10:38:37;;;;;;;3.33;2.10;;;;;;;;;;5095868;28;20024;-77
2022/09/22 10:41:07;;;;;;;3.22;2.20;;;;;;;;;;5094515;28;20020;-78
2022/09/22 10:43:35;;;;;;;4.28;2.50;;;;;;;;;;5095525;28;20044;-78
2022/09/22 10:46:15;;;;;;;2.83;1.98;;;;;;;;;;5095829;28;20016;-77
2022/09/22 10:48:53;;;;;;;3.55;2.30;;;;;;;;;;5095507;28;20044;-77
2022/09/22 10:51:36;;;;;;;3.40;1.80;;;;;;;;;;5093817;28;20485;-78
2022/09/22 10:54:23;;;;;;;2.40;1.70;;;;;;;;;;5093819;28;20024;-77
2022/09/22 10:56:53;;;;;;;3.95;2.25;;;;;;;;;;5093727;28;20032;-77
2022/09/22 10:59:33;;;;;;;2.00;1.65;;;;;;;;;;5094832;28;20035;-78
2022/09/22 11:02:30;;;;;;;2.38;1.70;;;;;;;;;;5093622;28;20374;-77
2022/09/22 11:05:14;;;;;;;1.35;1.20;;;;;;;;;;5094944;28;20447;-77
2022/09/22 11:13:58;;;;;;;1.40;1.27;;;;;;;;;;5094821;28;20043;-78
2022/09/22 11:16:51;;;;;;;2.10;1.30;;;;;;;;;;5093644;28;20031;-76
2022/09/22 11:19:54;;;;;;;2.95;1.30;;;;;;;;;;5093849;28;20027;-78
2022/09/22 11:22:34;;;;;;;2.20;1.38;;;;;;;;;;5094684;28;20020;-77
2022/09/22 11:25:30;;;;;;;2.83;1.30;;;;;;;;;;5095144;28;20024;-77
2022/09/22 11:28:24;;;;;;;1.80;1.08;;;;;;;;;;5093212;28;20032;-77
2022/09/22 11:30:50;;;;;;;2.72;1.42;;;;;;;;;;5094840;28;20152;-77
2022/09/22 11:33:57;;;;;;;3.42;1.48;;;;;;;;;;5094354;28;20109;-77
2022/09/22 11:36:52;;;;;;;3.53;1.20;;;;;;;;;;5094486;28;20027;-77
2022/09/22 11:39:41;;;;;;;1.65;1.15;;;;;;;;;;5092779;28;20027;-77
2022/09/22 11:42:12;;;;;;;4.00;0.93;;;;;;;;;;5093007;28;20479;-77
2022/09/22 11:44:45;;;;;;;1.50;0.95;;;;;;;;;;5094073;28;20511;-78
2022/09/22 11:47:33;;;;;;;0.95;0.85;;;;;;;;;;5094053;28;20046;-76
2022/09/22 11:50:18;;;;;;;1.52;0.95;;;;;;;;;;5093850;28;20028;-78
2022/09/22 11:53:41;;;;;;;1.90;0.95;;;;;;;;;;5094064;28;20035;-77
2022/09/22 11:56:33;;;;;;;2.35;1.02;;;;;;;;;;5012098;28;20109;-78
2022/09/22 11:59:11;;;;;;;1.95;1.00;;;;;;;;;;4996086;28;20036;-78
2022/09/22 12:01:39;;;;;;;1.35;0.90;;;;;;;;;;5071931;28;20046;-77
2022/09/22 12:04:18;;;;;;;1.70;0.95;;;;;;;;;;5094237;28;20103;-77
2022/09/22 12:06:48;;;;;;;3.05;0.77;;;;;;;;;;5093398;28;20020;-77
2022/09/22 12:09:42;;;;;;;0.70;0.70;;;;;;;;;;5092470;28;20038;-77
2022/09/22 12:12:15;;;;;;;1.10;0.90;;;;;;;;;;5094012;28;20081;-77
2022/09/22 12:14:41;;;;;;;1.00;0.90;;;;;;;;;;5094024;28;20063;-77
2022/09/22 12:17:15;;;;;;;1.30;0.80;;;;;;;;;;5092298;28;20504;-78
2022/09/22 12:20:14;;;;;;;2.38;0.90;;;;;;;;;;5092315;28;20384;-76
2022/09/22 12:23:10;;;;;;;1.13;0.77;;;;;;;;;;5092212;28;20488;-77
2022/09/22 12:25:46;;;;;;;4.97;1.10;;;;;;;;;;5094170;28;20031;-78
2022/09/22 12:28:15;;;;;;;1.02;0.68;;;;;;;;;;5094031;28;20046;-78
2022/09/22 12:30:57;;;;;;;1.05;0.80;;;;;;;;;;5093824;28;20099;-77
2022/09/22 12:33:22;;;;;;;0.93;0.82;;;;;;;;;;5093764;28;20039;-77
2022/09/22 12:35:54;;;;;;;1.48;0.70;;;;;;;;;;5091980;28;20431;-79
2022/09/22 12:38:21;;;;;;;1.33;0.90;;;;;;;;;;5091864;28;20052;-77
2022/09/22 12:40:50;;;;;;;2.55;0.95;;;;;;;;;;5092062;28;20069;-77
2022/09/22 12:43:19;;;;;;;2.03;1.00;;;;;;;;;;5093418;28;20148;-77
2022/09/22 12:45:44;;;;;;;1.25;0.85;;;;;;;;;;5094354;28;20027;-78
2022/09/22 12:48:15;;;;;;;1.52;0.70;;;;;;;;;;5093307;28;20024;-78
2022/09/22 12:50:42;;;;;;;1.13;0.60;;;;;;;;;;5093359;28;20065;-79
2022/09/22 12:53:24;;;;;;;0.90;0.63;;;;;;;;;;5092599;28;20472;-78
2022/09/22 12:55:52;;;;;;;0.60;0.60;;;;;;;;;;5094499;28;20027;-78
2022/09/22 12:58:17;;;;;;;1.83;0.80;;;;;;;;;;5092322;28;20052;-77
2022/09/22 13:00:42;;;;;;;0.80;0.80;;;;;;;;;;5094299;28;20024;-78
2022/09/22 13:03:26;;;;;;;0.73;0.73;;;;;;;;;;5093571;28;20027;-78
2022/09/22 13:05:53;;;;;;;0.70;0.70;;;;;;;;;;5093538;28;20324;-77
2022/09/22 13:08:47;;;;;;;2.95;1.00;;;;;;;;;;5093259;28;20028;-78
2022/09/22 13:11:12;;;;;;;1.37;0.80;;;;;;;;;;5093895;28;20457;-78
2022/09/22 13:13:42;;;;;;;1.58;0.90;;;;;;;;;;5094258;28;20115;-78
2022/09/22 13:16:13;;;;;;;2.08;0.90;;;;;;;;;;5093379;28;20067;-78
2022/09/22 13:18:40;;;;;;;0.90;0.80;;;;;;;;;;5094040;28;20024;-78
2022/09/22 13:21:11;;;;;;;0.82;0.77;;;;;;;;;;5093649;28;20024;-77
2022/09/22 13:23:54;;;;;;;1.85;1.08;;;;;;;;;;5093409;28;20069;-78
2022/09/22 13:26:21;;;;;;;2.00;0.80;;;;;;;;;;5093950;28;20032;-78
2022/09/22 13:29:00;;;;;;;2.03;1.55;;;;;;;;;;5093811;28;20035;-78
2022/09/22 13:31:26;;;;;;;1.05;0.90;;;;;;;;;;5093097;28;20021;-77
2022/09/22 13:33:51;;;;;;;1.40;0.80;;;;;;;;;;5093315;28;20526;-77
2022/09/22 13:36:22;;;;;;;0.82;0.73;;;;;;;;;;5093219;28;20020;-78
2022/09/22 13:38:52;;;;;;;1.00;0.90;;;;;;;;;;5093234;28;20052;-77
2022/09/22 13:41:22;;;;;;;1.42;0.82;;;;;;;;;;5093801;28;20069;-77
2022/09/22 13:44:11;;;;;;;1.65;1.00;;;;;;;;;;5096787;28;20062;-77
2022/09/22 13:46:39;;;;;;;1.55;0.98;;;;;;;;;;5096511;28;20028;-77
2022/09/22 13:49:10;;;;;;;1.67;1.10;;;;;;;;;;5096592;28;20435;-77
2022/09/22 13:51:35;;;;;;;1.15;1.05;;;;;;;;;;5096800;28;20035;-77
2022/09/22 13:54:02;;;;;;;2.35;1.00;;;;;;;;;;5096259;28;20388;-77
2022/09/22 13:56:29;;;;;;;2.20;1.00;;;;;;;;;;5096433;28;20097;-77
2022/09/22 13:58:57;;;;;;;1.20;1.00;;;;;;;;;;5096566;28;20074;-78
2022/09/22 14:01:26;;;;;;;1.13;0.80;;;;;;;;;;5096889;28;20047;-77
2022/09/22 14:03:52;;;;;;;1.65;1.00;;;;;;;;;;5095281;28;20115;-77
2022/09/22 14:06:27;;;;;;;1.85;0.98;;;;;;;;;;5096205;28;20103;-77
2022/09/22 14:08:54;;;;;;;1.35;1.00;;;;;;;;;;5096330;28;20499;-77
2022/09/22 14:11:23;;;;;;;1.00;0.90;;;;;;;;;;5094933;28;20037;-77
2022/09/22 14:13:54;;;;;;;1.80;0.90;;;;;;;;;;5096455;28;20491;-77
2022/09/22 14:16:25;;;;;;;1.58;0.98;;;;;;;;;;5094628;28;20074;-78
2022/09/22 14:18:57;;;;;;;0.93;0.80;;;;;;;;;;5096653;28;20069;-77
2022/09/22 14:21:22;;;;;;;2.92;1.10;;;;;;;;;;5095943;28;20016;-77
2022/09/22 14:23:49;;;;;;;1.63;1.25;;;;;;;;;;5095551;28;20022;-77
2022/09/22 14:26:34;;;;;;;1.25;0.80;;;;;;;;;;5096084;28;20069;-77
2022/09/22 14:29:30;;;;;;;1.45;0.98;;;;;;;;;;5095670;28;20024;-77
2022/09/22 14:32:04;;;;;;;1.77;1.00;;;;;;;;;;5073389;28;20035;-77
2022/09/22 14:34:31;;;;;;;2.85;0.90;;;;;;;;;;5094185;28;20028;-77
2022/09/22 14:36:58;;;;;;;3.60;0.90;;;;;;;;;;5095528;28;20483;-77
2022/09/22 14:39:29;;;;;;;1.60;0.88;;;;;;;;;;5095323;28;20019;-77
2022/09/22 14:41:58;;;;;;;2.38;1.02;;;;;;;;;;5094879;28;20020;-77
2022/09/22 14:44:34;;;;;;;2.88;0.82;;;;;;;;;;5093822;28;20503;-77
2022/09/22 14:47:27;;;;;;;1.75;0.80;;;;;;;;;;5095150;28;20036;-77
2022/09/22 14:50:17;;;;;;;4.43;1.40;;;;;;;;;;5092814;28;20040;-77
2022/09/22 14:52:56;;;;;;;2.75;1.15;;;;;;;;;;5095182;28;20035;-77
2022/09/22 14:55:33;;;;;;;3.85;0.80;;;;;;;;;;5095504;28;20028;-77
2022/09/22 14:58:02;;;;;;;1.00;0.90;;;;;;;;;;5093699;28;20030;-77
2022/09/22 15:03:20;;;;;;;2.55;0.90;;;;;;;;;;5095050;28;20542;-77
2022/09/22 15:05:45;;;;;;;1.05;0.90;;;;;;;;;;5095011;28;20512;-77
2022/09/22 15:08:19;;;;;;;4.10;0.98;;;;;;;;;;5094736;28;20028;-78
2022/09/22 15:10:56;;;;;;;1.23;0.88;;;;;;;;;;5093572;28;20488;-77
2022/09/22 15:13:44;;;;;;;2.33;1.05;;;;;;;;;;5094747;28;20024;-77
2022/09/22 15:16:38;;;;;;;1.95;1.00;;;;;;;;;;5094646;28;20048;-77
2022/09/22 15:19:04;;;;;;;;;;;;;;;;;;5094861;28;20370;-78
2022/09/22 15:21:35;;;;;;;2.30;1.10;;;;;;;;;;5095251;28;19915;-77
2022/09/22 15:24:00;;;;;;;1.40;0.80;;;;;;;;;;5094620;28;20561;-77
2022/09/22 15:26:27;;;;;;;2.20;1.02;;;;;;;;;;5094703;28;20024;-78